News    GLOBAL    TV    HD    3D    Ultra HD    Radio    Data    Temp.FTA    [-]    Clear

European Satellite Zapping & Directory
Channel Search:
Astra 2G (28.2°E) Transponder 95
26.0E>
<30.5E

Orbital position Satellite Norad .ini News channels Free To Air only Longitude Declination now Max declination Azimuth Elevation Last updated
28.2°E Astra 2E 39285 329 145 28.48°E 0.04° 0.08° N/A N/A 2024-04-19 21:16
28.2°E Astra 2F 38778 145 68 28.18°E 0.06° 0.06° N/A N/A 2024-04-16 20:48
28.2°E Astra 2G 40364 237 163 28.17°E -0.04° 0.05° N/A N/A 2024-04-18 20:33

Sorted by: Encryption: Display mode:

36 record(s) - Sorted by frequency - Most recent updates: CET

Pos Satellite Frequence Pol Txp Beam Standard Modulation SR/FEC Network, bitrate NID TID
28.2°E 36Astra 2G 11552.75H95EuropeDVB-SQPSK22000 5/633.8 Mb/s 22095 KingOfSat charts update form
Craft Extra
United Kingdom Teleshopping Sky Digital Clear 9537 2332 2333 eng  305  2332    2023-10-21 +
Jewellery Channel
United Kingdom Teleshopping Sky Digital Clear 55100 2346 2347 eng  267  2346    2020-09-12 +
High Street TV 2 United Kingdom Teleshopping Sky Digital Clear 55102 2352 2353 eng  273  2352    2018-02-01 +
High Street TV 3
United Kingdom Teleshopping Sky Digital Clear 55104 2338 2339 eng  266  2338    2021-11-02 +
NTD TV (New Tang Dynasty TV) U.S.A. General Sky Digital Clear 55106 2306 2307 eng  257  2306    2021-02-22 +
Noor TV United Kingdom Religious Sky Digital Clear 55109 2355 2356 eng  264  2355    2015-08-19 +
Pitaara United Kingdom Entertainment Sky Digital Clear 55110 2313 2323 eng  275  2313    2024-02-12 +
Clubland TV
United Kingdom Music Sky Digital Clear 55113 2557 2558 eng  256  2557    2015-08-19 +
Now Rock United Kingdom Music Sky Digital Clear 55114 2560 2561 eng  261  2560    2022-12-27 +
NDTV 24x7 India News Sky Digital Clear 55116 2360 2361 eng  269  2360    2015-08-19 +

SonLife Broadcasting Network United Kingdom Religious Sky Digital Clear 55120 2331 2329 esp
2330 eng 
277  2331  2328  2021-10-30 +
Channel S United Kingdom General Sky Digital Clear 55142 2326 2324 eng  276  2326    2024-02-12 +
HUM Masala United Kingdom Entertainment Sky Digital Clear 55146 2343 2342 eng  281  2343    2021-10-30 +
PTV Global Pakistan General Sky Digital Clear 55151 2335 2337 urd  259  2335    2020-04-07 +
Kanshi TV United Kingdom Entertainment Sky Digital Clear 55155 2327 2345 eng  279  2327    2024-02-12 +
Hum Europe Pakistan General Sky Digital Clear 55181 2341 2340 urd  285  2341    2021-10-30 +
Deen TV United Kingdom Religious Sky Digital Clear 55185 2314 2315 eng  260  2314    2021-02-23 +
Capital XTRA Freesat
Sky Digital
Clear 9549   2320 eng  313  2320    2015-08-19
Radio X Freesat
Sky Digital
Clear 9559   2316 eng  318  2316    2015-09-14
Capital Freesat
Sky Digital
Clear 9560   2318 eng  319  2318    2016-09-26
Gold Freesat
Sky Digital
Clear 9561   2310  258  2310    2015-08-19
Khushkhabri Sky Digital Clear 9563   2336  320  2336    2015-08-19
Classic FM Freesat
Sky Digital
Clear 9570   2344 eng  263  2344    2015-08-19
LBC News Sky Digital Clear 55131   2334  282  2334    2020-01-09
Smooth Sky Digital Clear 55132   2312  270  2312    2015-08-19
Heart Dance Sky Digital Clear 55133   2311 eng  271  2311    2019-10-07
Virgin Radio Italy Music Sky Digital Clear 55135   2321 eng  278  2321    2019-01-08 +
TWR Sky Digital Clear 55136   2322  280  2322    2019-03-01
Heart 90s Sky Digital Clear 55139   2325 eng  265  2325    2019-11-13
Panjab Radio Sky Digital Clear 55186   2305  295  2305    2023-08-01
Sukh Sagar Sky Digital Clear 55187   2308  296  2308    2023-08-01
BFBS Radio Sky Digital Clear 55188   2309  297  2309    2023-08-01
LBC Sky Digital Clear 55189   2317  298  2317    2023-08-02
Heart Sky Digital Clear 55190   2319  299  2319    2023-08-02
Heart 80s Sky Digital Clear 55191   2350  300  2350    2023-08-02
talkSPORT Sky Digital Clear 55198   2348 eng  283  2348    2024-02-12

Detailed transponder stream properties (11552.75 H)

SID Ident. PID Format Colorimetry Width Height Aspect Ratio Frame rate
Sampling rate
Bitrate mode Bitrate Scan type Last updated
9537 2332 MPEG Video Main, Main 4:2:0 544 576 1.778 25.000 FPS VBR Interlaced 2024-04-22
9537 2333 MPEG Audio, Layer 22 channels 48000 CBR 128000 2024-04-22
9549 2320 MPEG Audio, Layer 22 channels 48000 CBR 160000 2024-04-22
9559 2316 MPEG Audio, Layer 22 channels 48000 CBR 160000 2024-04-22
9560 2318 MPEG Audio, Layer 22 channels 48000 CBR 160000 2024-04-22
9561 2310 MPEG Audio, Layer 22 channels 48000 CBR 160000 2024-04-22
9563 2336 MPEG Audio, Layer 21 channel 48000 CBR 96000 2024-04-22
9570 2344 MPEG Audio, Layer 22 channels 48000 CBR 192000 2024-04-22
55100 2346 MPEG Video Main, Main 4:2:0 720 576 1.778 25.000 FPS VBR Interlaced 2024-04-22
55100 2347 MPEG Audio, Layer 22 channels 48000 CBR 192000 2024-04-22
55102 2352 MPEG Video Main, Main 4:2:0 544 576 1.778 25.000 FPS VBR Interlaced 2024-04-22
55102 2353 MPEG Audio, Layer 22 channels 48000 CBR 128000 2024-04-22
55104 2338 MPEG Video Main, Main 4:2:0 544 576 1.778 25.000 FPS VBR Interlaced 2024-04-22
55104 2339 MPEG Audio, Layer 22 channels 48000 CBR 128000 2024-04-22
55106 2306 MPEG Video Main, Main 4:2:0 544 576 1.778 25.000 FPS VBR Interlaced 2024-04-22
55106 2307 MPEG Audio, Layer 22 channels 48000 CBR 128000 2024-04-22
55109 2355 MPEG Video Main, Main 4:2:0 544 576 1.778 25.000 FPS VBR Interlaced 2024-04-22
55109 2356 MPEG Audio, Layer 22 channels 48000 CBR 128000 2024-04-22
55110 2313 MPEG Video Main, Main 4:2:0 544 576 1.778 25.000 FPS VBR Interlaced 2024-04-22
55110 2323 MPEG Audio, Layer 22 channels 48000 CBR 128000 2024-04-22
55113 2557 MPEG Video Main, Main 4:2:0 544 576 1.778 25.000 FPS VBR Interlaced 2024-04-22
55113 2558 MPEG Audio, Layer 22 channels 48000 CBR 192000 2024-04-22
55114 2560 MPEG Video Main, Main 4:2:0 544 576 1.778 25.000 FPS VBR Interlaced 2024-04-22
55114 2561 MPEG Audio, Layer 22 channels 48000 CBR 192000 2024-04-22
55116 2360 MPEG Video Main, Main 4:2:0 544 576 1.333 25.000 FPS VBR Interlaced 2024-04-22
55116 2361 MPEG Audio, Layer 22 channels 48000 CBR 128000 2024-04-22
55120 2328 Teletext 2024-04-22
55120 2329 MPEG Audio, Layer 22 channels 48000 CBR 128000 2024-04-22
55120 2330 MPEG Audio, Layer 22 channels 48000 CBR 128000 2024-04-22
55120 2331 MPEG Video Main, Main 4:2:0 544 576 1.778 25.000 FPS VBR Interlaced 2024-04-22
55131 2334 MPEG Audio, Layer 22 channels 48000 CBR 128000 2024-04-22
55132 2312 MPEG Audio, Layer 22 channels 48000 CBR 160000 2024-04-22
55133 2311 MPEG Audio, Layer 22 channels 48000 CBR 160000 2024-04-22
55135 2321 MPEG Audio, Layer 22 channels 48000 CBR 192000 2024-04-22
55136 2322 MPEG Audio, Layer 21 channel 48000 CBR 64000 2024-04-22
55139 2325 MPEG Audio, Layer 22 channels 48000 CBR 160000 2024-04-22
55142 2324 MPEG Audio, Layer 22 channels 48000 CBR 128000 2024-04-22
55142 2326 MPEG Video Main, Main 4:2:0 544 576 1.778 25.000 FPS VBR Interlaced 2024-04-22
55146 2342 MPEG Audio, Layer 22 channels 48000 CBR 192000 2024-04-22
55146 2343 MPEG Video Main, Main 4:2:0 544 576 1.333 25.000 FPS VBR Interlaced 2024-04-22
55151 2335 MPEG Video Main, Main 4:2:0 544 576 1.333 25.000 FPS VBR Interlaced 2024-04-22
55151 2337 MPEG Audio, Layer 22 channels 48000 CBR 128000 2024-04-22
55155 2327 MPEG Video Main, Main 4:2:0 544 576 1.778 25.000 FPS VBR Interlaced 2024-04-22
55155 2345 MPEG Audio, Layer 22 channels 48000 CBR 192000 2024-04-22
55181 2340 MPEG Audio, Layer 22 channels 48000 CBR 128000 2024-04-22
55181 2341 MPEG Video Main, Main 4:2:0 544 576 1.333 25.000 FPS VBR Interlaced 2024-04-22
55185 2314 MPEG Video Main, Main 4:2:0 720 576 1.778 25.000 FPS VBR Interlaced 2024-04-22
55185 2315 MPEG Audio, Layer 22 channels 48000 CBR 128000 2024-04-22
55186 2305 MPEG Audio, Layer 21 channel 48000 CBR 128000 2024-04-22
55187 2308 MPEG Audio, Layer 21 channel 48000 CBR 96000 2024-04-22
55188 2309 MPEG Audio, Layer 22 channels 48000 CBR 128000 2024-04-22
55189 2317 MPEG Audio, Layer 22 channels 48000 CBR 128000 2024-04-22
55190 2319 MPEG Audio, Layer 22 channels 48000 CBR 160000 2024-04-22
55191 2350 MPEG Audio, Layer 22 channels 48000 CBR 160000 2024-04-22
55198 2348 MPEG Audio, Layer 21 channel 32000 CBR 80000 2024-04-22

Your Comments / Updates

Legend

8K - Ultra HD

4K - Ultra HD

High Definition

Sporadic or full 16/9 transmission

     

Video: MPEG-4/AVC/H-264

     

Video: MPEG-H/HEVC/H-265

     

Video: MPEG-I/VVC/H-266

     

Clear

     

Encrypted

Displays a screenshot

3D

LIVE video broadcasts

+

Change Log

     

DVB-S

     

DVB-S2

     

DVB-S2X


PROFILE/PRIVACY - INDEX - NEWS - SATELLITES - PACKAGES - CHANNELS - SEARCH - BEAMS - FEEDS - CEMETERY - Your Comments / Updates

All contents on this site are protected by copyright and owned by KingOfSat, except contents shown in some screenshots that belong to their respective owners. Screenshots are only proposed to help illustrating, identifying and promoting corresponding TV channels. For all questions/remarks related to copyright, please contact KingOfSat webmaster.